Time;durP1;ratioP1;P1;durP2;ratioP2;P2;SDS_P1;SDS_P2;PMS_P1;PMS_P2;Temp;Humidity;BMP_temperature;BMP_pressure;BME280_temperature;BME280_humidity;BME280_pressure;Samples;Min_cycle;Max_cycle;Signal;HPM_P1;HPM_P2
2021/08/12 00:01:21;;;;;;;16.98;11.90;;;;;;;14.68;98.18;101527.25;4985153;28;20030;-83
2021/08/12 00:03:47;;;;;;;18.00;12.75;;;;;;;14.66;97.66;101530.13;4998842;28;20562;-81
2021/08/12 00:06:14;;;;;;;18.52;12.73;;;;;;;14.61;98.30;101527.09;4977829;28;20042;-82
2021/08/12 00:08:39;;;;;;;17.98;12.82;;;;;;;14.61;98.07;101527.09;4981853;28;20077;-81
2021/08/12 00:11:06;;;;;;;19.83;12.60;;;;;;;14.55;98.21;101522.38;4983495;28;20072;-81
2021/08/12 00:13:32;;;;;;;16.65;12.77;;;;;;;14.50;98.35;101519.34;4983108;28;20053;-82
2021/08/12 00:15:59;;;;;;;16.92;12.10;;;;;;;14.53;98.28;101521.72;4980026;28;20054;-80
2021/08/12 00:18:27;;;;;;;19.02;13.35;;;;;;;14.53;98.20;101519.03;4983541;28;20042;-81
2021/08/12 00:20:53;;;;;;;17.88;12.88;;;;;;;14.54;98.35;101519.88;4980843;28;20483;-80
2021/08/12 00:23:18;;;;;;;19.95;13.07;;;;;;;14.47;98.60;101516.97;4966062;28;20662;-84
2021/08/12 00:25:45;;;;;;;16.60;12.38;;;;;;;14.45;98.44;101519.00;4983930;28;20046;-82
2021/08/12 00:28:15;;;;;;;17.55;12.38;;;;;;;14.44;98.55;101520.00;4982851;28;20380;-81
2021/08/12 00:30:40;;;;;;;;;;;;;;;14.39;98.85;101517.84;4980746;28;20768;-83
2021/08/12 00:33:05;;;;;;;18.90;13.73;;;;;;;14.30;99.23;101507.22;4992265;28;20000;-83
2021/08/12 00:35:32;;;;;;;17.95;12.75;;;;;;;14.26;99.47;101509.41;4978819;28;20042;-82
2021/08/12 00:37:57;;;;;;;17.33;13.13;;;;;;;14.26;99.77;101511.28;4978287;28;20062;-81
2021/08/12 00:40:23;;;;;;;19.30;12.52;;;;;;;14.22;99.40;101505.38;4978670;28;20589;-81
2021/08/12 00:42:49;;;;;;;18.35;13.13;;;;;;;14.21;99.50;101504.56;4976561;28;20038;-83
2021/08/12 00:45:14;;;;;;;17.88;12.57;;;;;;;14.22;99.58;101511.63;4978767;28;20045;-81
2021/08/12 00:47:39;;;;;;;18.73;13.18;;;;;;;14.19;99.67;101506.56;4982921;28;20052;-83
2021/08/12 00:50:06;;;;;;;19.27;12.80;;;;;;;14.21;99.33;101504.56;4974834;28;20054;-80
2021/08/12 00:52:32;;;;;;;16.92;12.65;;;;;;;14.19;99.58;101501.16;4979677;28;20414;-83
2021/08/12 00:54:58;;;;;;;18.08;13.00;;;;;;;14.19;99.16;101501.16;4977489;28;20051;-83
2021/08/12 00:57:24;;;;;;;15.90;11.98;;;;;;;14.14;98.98;101502.69;4980096;28;20137;-82
2021/08/12 00:59:50;;;;;;;16.35;11.30;;;;;;;14.09;99.08;101510.44;4976803;28;20187;-82
2021/08/12 01:02:15;;;;;;;16.92;11.75;;;;;;;14.06;99.24;101500.84;4977250;28;20125;-82
2021/08/12 01:04:48;;;;;;;16.42;12.27;;;;;;;14.01;99.28;101497.78;4980764;28;20050;-81
2021/08/12 01:07:19;;;;;;;17.85;13.23;;;;;;;14.02;99.58;101495.97;5010067;28;20057;-82
2021/08/12 01:09:53;;;;;;;16.63;12.18;;;;;;;14.03;99.48;101492.25;4981614;28;20038;-83
2021/08/12 01:13:06;;;;;;;18.60;12.88;;;;;;;14.03;99.33;101494.94;4981125;28;20519;-81
2021/08/12 01:15:41;;;;;;;18.95;13.20;;;;;;;13.95;99.22;101499.34;4933250;28;20135;-81
2021/08/12 01:18:38;;;;;;;18.00;12.55;;;;;;;13.92;99.33;101504.22;4974990;28;20065;-81
2021/08/12 01:21:25;;;;;;;17.00;12.65;;;;;;;13.90;99.66;101495.47;4975526;28;20042;-82
2021/08/12 01:23:57;;;;;;;16.75;12.23;;;;;;;13.88;99.46;101502.88;4978451;28;20465;-82
2021/08/12 01:26:23;;;;;;;18.13;11.98;;;;;;;13.88;99.26;101501.03;4980604;28;20097;-81
2021/08/12 01:28:50;;;;;;;16.25;12.05;;;;;;;13.85;99.18;101487.03;4978483;28;20042;-84
2021/08/12 01:31:31;;;;;;;18.20;12.48;;;;;;;13.81;99.33;101491.94;4984311;28;20035;-80
2021/08/12 01:34:18;;;;;;;17.23;11.93;;;;;;;13.81;99.14;101485.66;4964432;28;20125;-82
2021/08/12 01:36:46;;;;;;;17.30;13.27;;;;;;;13.78;99.15;101497.63;4958043;28;20126;-82
2021/08/12 01:39:15;;;;;;;17.48;12.35;;;;;;;13.73;99.21;101498.16;4957015;28;20063;-81
2021/08/12 01:41:43;;;;;;;17.20;12.60;;;;;;;13.71;99.52;101497.47;4958510;28;20049;-80
2021/08/12 01:44:12;;;;;;;16.55;12.35;;;;;;;13.68;99.43;101497.81;4958977;28;20464;-81
2021/08/12 01:46:38;;;;;;;20.15;13.40;;;;;;;13.68;99.49;101495.09;4960774;28;20569;-83
2021/08/12 01:49:04;;;;;;;18.30;12.90;;;;;;;13.64;99.97;101485.69;4957528;28;20051;-83
2021/08/12 01:51:31;;;;;;;15.82;12.20;;;;;;;13.59;99.70;101488.03;4958768;28;20069;-83
2021/08/12 01:53:59;;;;;;;20.08;13.23;;;;;;;13.59;99.66;101484.50;4957474;28;20130;-83
2021/08/12 01:56:27;;;;;;;19.67;13.65;;;;;;;13.54;100.00;101485.81;4959818;28;20070;-82
2021/08/12 01:58:56;;;;;;;17.95;13.52;;;;;;;13.51;100.00;101490.72;4959504;28;20050;-81
2021/08/12 02:01:22;;;;;;;18.48;13.18;;;;;;;13.49;100.00;101484.63;4958201;28;20035;-81
2021/08/12 02:03:49;;;;;;;16.92;12.68;;;;;;;13.49;100.00;101481.94;4959003;28;20085;-81
2021/08/12 02:06:14;;;;;;;19.13;13.73;;;;;;;13.49;100.00;101484.63;4960962;28;20045;-82
2021/08/12 02:08:40;;;;;;;16.35;12.73;;;;;;;13.47;99.91;101483.97;4959453;28;20486;-82
2021/08/12 02:11:05;;;;;;;17.25;12.45;;;;;;;13.43;100.00;101477.22;4935087;28;20555;-81
2021/08/12 02:13:31;;;;;;;18.52;12.98;;;;;;;13.44;99.80;101468.13;4956616;28;20435;-82
2021/08/12 02:15:58;;;;;;;17.90;12.13;;;;;;;13.41;99.89;101466.59;4958634;28;20246;-82
2021/08/12 02:18:24;;;;;;;20.10;12.45;;;;;;;13.42;99.29;101470.97;4959754;28;20448;-82
2021/08/12 02:21:06;;;;;;;17.67;12.50;;;;;;;13.44;99.48;101477.06;4956625;28;20055;-81
2021/08/12 02:23:59;;;;;;;17.40;12.80;;;;;;;13.43;99.99;101469.13;4950584;28;20043;-83
2021/08/12 02:26:31;;;;;;;19.00;12.55;;;;;;;13.35;99.99;101469.97;4984477;28;20059;-84
2021/08/12 02:28:58;;;;;;;18.88;13.10;;;;;;;13.33;100.00;101474.69;4956084;28;20062;-80
2021/08/12 02:31:26;;;;;;;18.02;13.02;;;;;;;13.32;100.00;101479.22;4958070;28;20043;-82
2021/08/12 02:33:53;;;;;;;17.92;12.80;;;;;;;13.32;99.93;101484.63;4957271;28;20039;-81
2021/08/12 02:36:18;;;;;;;17.63;12.50;;;;;;;13.36;99.67;101487.00;4958995;28;20043;-80
2021/08/12 02:38:46;;;;;;;19.05;12.60;;;;;;;13.38;99.76;101490.34;4958077;28;20049;-81
2021/08/12 02:41:14;;;;;;;15.60;12.13;;;;;;;13.39;100.00;101481.25;4976160;28;20054;-80
2021/08/12 02:43:43;;;;;;;15.68;11.50;;;;;;;13.37;100.00;101478.72;4977181;28;20157;-82
2021/08/12 02:46:10;;;;;;;15.07;12.02;;;;;;;13.38;99.81;101477.72;4956594;28;20046;-81
2021/08/12 02:48:37;;;;;;;18.25;12.75;;;;;;;13.36;99.85;101473.50;4959188;28;20059;-83
2021/08/12 02:51:04;;;;;;;18.60;12.10;;;;;;;13.32;100.00;101481.94;4955597;28;20045;-81
2021/08/12 02:53:31;;;;;;;17.67;12.50;;;;;;;13.35;100.00;101475.38;4957516;28;20515;-83
2021/08/12 02:55:58;;;;;;;16.67;13.07;;;;;;;13.38;100.00;101474.16;4957133;28;20492;-83
2021/08/12 02:58:30;;;;;;;17.17;13.38;;;;;;;13.36;100.00;101476.19;4956033;28;20158;-81
2021/08/12 03:00:56;;;;;;;17.65;13.07;;;;;;;13.35;100.00;101474.50;4954750;28;20042;-83
2021/08/12 03:03:24;;;;;;;18.40;13.43;;;;;;;13.35;100.00;101463.72;4957538;28;20046;-81
2021/08/12 03:05:50;;;;;;;20.92;13.93;;;;;;;13.32;100.00;101462.19;4958448;28;20459;-82
2021/08/12 03:08:19;;;;;;;20.23;13.55;;;;;;;13.30;100.00;101448.91;4959238;28;20046;-82
2021/08/12 03:10:44;;;;;;;19.35;13.65;;;;;;;13.30;100.00;101450.75;4955470;28;20058;-85
2021/08/12 03:13:10;;;;;;;20.75;13.18;;;;;;;13.23;100.00;101450.53;4947879;28;20043;-81
2021/08/12 03:15:37;;;;;;;19.17;13.45;;;;;;;13.16;100.00;101445.97;4957292;28;20162;-80
2021/08/12 03:18:03;;;;;;;17.58;13.25;;;;;;;13.18;100.00;101458.28;4964101;28;20293;-84
2021/08/12 03:20:29;;;;;;;20.25;13.80;;;;;;;13.16;100.00;101454.06;4957164;28;20089;-83
2021/08/12 03:22:58;;;;;;;20.33;13.88;;;;;;;13.13;100.00;101446.31;4978051;28;20089;-81
2021/08/12 03:25:24;;;;;;;17.88;13.35;;;;;;;13.12;100.00;101453.56;4976796;28;20109;-83
2021/08/12 03:27:49;;;;;;;18.98;13.85;;;;;;;13.10;100.00;101458.25;4975011;28;20045;-83
2021/08/12 03:30:15;;;;;;;19.98;15.25;;;;;;;13.12;100.00;101472.41;4969547;28;20370;-81
2021/08/12 03:32:40;;;;;;;20.38;14.15;;;;;;;13.13;100.00;101470.56;4976330;28;20463;-83
2021/08/12 03:35:06;;;;;;;18.98;13.98;;;;;;;13.13;100.00;101473.25;4979411;28;20744;-82
2021/08/12 03:37:31;;;;;;;20.05;14.30;;;;;;;13.17;99.97;101471.91;4975587;28;20046;-82
2021/08/12 03:39:57;;;;;;;21.25;15.10;;;;;;;13.21;100.00;101476.81;4975458;28;20066;-83
2021/08/12 03:42:22;;;;;;;17.83;13.40;;;;;;;13.18;100.00;101466.38;4986478;28;20696;-83
2021/08/12 03:44:48;;;;;;;20.48;13.90;;;;;;;13.17;100.00;101467.34;4967779;28;20049;-83
2021/08/12 03:47:13;;;;;;;18.80;13.65;;;;;;;13.15;100.00;101466.69;4977822;28;20131;-83
2021/08/12 03:49:38;;;;;;;18.33;14.20;;;;;;;13.18;100.00;101462.84;4974724;28;20140;-81
2021/08/12 03:52:04;;;;;;;23.08;16.02;;;;;;;13.17;100.00;101463.81;4992268;28;20262;-81
2021/08/12 03:54:30;;;;;;;19.92;15.13;;;;;;;13.17;100.00;101461.97;4977502;28;20503;-83
2021/08/12 03:56:55;;;;;;;20.33;14.95;;;;;;;13.14;100.00;101464.16;4978041;28;20050;-83
2021/08/12 03:59:23;;;;;;;22.33;15.68;;;;;;;13.13;100.00;101459.78;4977188;28;20050;-84
2021/08/12 04:01:49;;;;;;;23.77;16.45;;;;;;;13.12;100.00;101464.34;4971461;28;20042;-83
2021/08/12 04:04:15;;;;;;;22.95;16.05;;;;;;;13.09;100.00;101467.34;4974852;28;20732;-85
2021/08/12 04:06:43;;;;;;;22.60;16.63;;;;;;;13.07;100.00;101461.28;4977389;28;20043;-82
2021/08/12 04:09:08;;;;;;;22.20;16.58;;;;;;;13.09;100.00;101464.66;4982163;28;20427;-82
2021/08/12 04:11:37;;;;;;;24.35;15.90;;;;;;;13.06;100.00;101462.28;4973553;28;20047;-83
2021/08/12 04:14:02;;;;;;;;;;;;;;;13.05;100.00;101466.81;4959398;28;20051;-83
2021/08/12 04:16:34;;;;;;;22.17;15.27;;;;;;;12.92;100.00;101469.16;4961871;28;19918;-82
2021/08/12 04:19:01;;;;;;;20.52;15.43;;;;;;;12.88;100.00;101478.56;4962564;28;20069;-83
2021/08/12 04:21:27;;;;;;;19.98;14.35;;;;;;;12.93;100.00;101478.91;4961367;28;20077;-81
2021/08/12 04:23:52;;;;;;;21.10;14.52;;;;;;;12.96;100.00;101481.28;4961518;28;20491;-83
2021/08/12 04:26:18;;;;;;;22.40;15.48;;;;;;;12.96;100.00;101485.84;4961841;28;20046;-81
2021/08/12 04:28:43;;;;;;;20.63;14.65;;;;;;;12.95;100.00;101489.53;4964281;28;20097;-82
2021/08/12 04:31:09;;;;;;;19.83;14.75;;;;;;;12.91;100.00;101489.00;4941722;28;20139;-84
2021/08/12 04:33:35;;;;;;;21.10;14.73;;;;;;;12.88;100.00;101484.78;4956652;28;20043;-84
2021/08/12 04:36:00;;;;;;;22.05;15.05;;;;;;;12.91;100.00;101485.47;4957505;28;20082;-81
2021/08/12 04:38:26;;;;;;;27.60;16.63;;;;;;;12.88;100.00;101484.78;4976445;28;20237;-83
2021/08/12 04:40:53;;;;;;;22.05;15.95;;;;;;;12.89;100.00;101482.94;4962545;28;20439;-81
2021/08/12 04:43:18;;;;;;;21.30;16.23;;;;;;;12.90;100.00;101486.47;4961749;28;20518;-82
2021/08/12 04:45:44;;;;;;;20.58;15.52;;;;;;;12.92;100.00;101497.91;4963670;28;20043;-80
2021/08/12 04:48:12;;;;;;;24.17;17.27;;;;;;;12.94;100.00;101495.91;4961980;28;20047;-82
2021/08/12 04:50:38;;;;;;;21.80;15.52;;;;;;;12.91;100.00;101493.53;4959160;28;20058;-82
2021/08/12 04:53:04;;;;;;;20.92;16.33;;;;;;;12.93;100.00;101494.25;4981978;28;20042;-81
2021/08/12 04:55:30;;;;;;;24.85;16.75;;;;;;;12.94;100.00;101494.06;4967226;28;20035;-82
2021/08/12 04:57:55;;;;;;;26.67;18.60;;;;;;;12.97;100.00;101500.97;4960991;28;20065;-83
2021/08/12 05:00:21;;;;;;;24.83;17.42;;;;;;;12.96;100.00;101492.06;4939552;28;20070;-82
2021/08/12 05:02:48;;;;;;;22.63;17.00;;;;;;;13.02;100.00;101493.25;4961541;28;20065;-83
2021/08/12 05:05:13;;;;;;;23.40;17.85;;;;;;;13.08;100.00;101488.03;4983743;28;20038;-81
2021/08/12 05:07:40;;;;;;;23.92;18.17;;;;;;;13.12;100.00;101490.41;4980007;28;20444;-82
2021/08/12 05:10:06;;;;;;;24.50;17.73;;;;;;;13.09;100.00;101483.53;4982605;28;20060;-82
2021/08/12 05:12:31;;;;;;;22.90;17.05;;;;;;;13.10;100.00;101483.34;4981582;28;20082;-81
2021/08/12 05:14:58;;;;;;;21.30;16.42;;;;;;;13.14;100.00;101483.84;4956205;28;20066;-81
2021/08/12 05:17:24;;;;;;;23.02;17.02;;;;;;;13.20;100.00;101485.06;4980502;28;20483;-82
2021/08/12 05:19:50;;;;;;;26.17;18.25;;;;;;;13.26;100.00;101485.28;4979729;28;20074;-83
2021/08/12 05:22:19;;;;;;;28.17;19.67;;;;;;;13.32;100.00;101481.06;5001780;28;20642;-82
2021/08/12 05:24:44;;;;;;;;;;;;;;;13.39;100.00;101482.09;4985858;28;20030;-85
2021/08/12 05:27:09;;;;;;;27.77;18.83;;;;;;;13.39;100.00;101481.25;4999870;28;20982;-81
2021/08/12 05:29:35;;;;;;;23.70;18.38;;;;;;;13.45;100.00;101486.81;4986847;28;20326;-83
2021/08/12 05:32:00;;;;;;;26.23;18.75;;;;;;;13.53;100.00;101486.00;4981519;28;20055;-85
2021/08/12 05:34:27;;;;;;;23.85;19.15;;;;;;;13.59;100.00;101479.94;4981055;28;20042;-84
2021/08/12 05:36:52;;;;;;;23.77;18.88;;;;;;;13.66;100.00;101483.63;4985106;28;20162;-84
2021/08/12 05:39:18;;;;;;;25.65;18.70;;;;;;;13.70;100.00;101485.00;4966281;28;20069;-83
2021/08/12 05:41:43;;;;;;;25.48;19.02;;;;;;;13.77;100.00;101486.00;4998011;28;20527;-85
2021/08/12 05:44:09;;;;;;;23.17;18.05;;;;;;;13.84;100.00;101485.31;4983904;28;20050;-83
2021/08/12 05:46:34;;;;;;;23.38;18.75;;;;;;;13.90;100.00;101490.06;4967897;28;20050;-83
2021/08/12 05:49:00;;;;;;;24.88;18.83;;;;;;;13.94;100.00;101486.00;4959595;28;20075;-84
2021/08/12 05:51:26;;;;;;;22.08;17.75;;;;;;;14.02;100.00;101486.00;4959487;28;20065;-86
2021/08/12 05:53:52;;;;;;;22.70;17.85;;;;;;;14.08;100.00;101487.19;4978450;28;20791;-81
2021/08/12 05:56:17;;;;;;;23.73;18.13;;;;;;;14.15;100.00;101486.31;4980981;28;20153;-84
2021/08/12 05:58:44;;;;;;;24.08;18.15;;;;;;;14.23;100.00;101494.41;4980996;28;20571;-84
2021/08/12 06:01:09;;;;;;;24.58;18.15;;;;;;;14.34;100.00;101490.50;4978050;28;20046;-85
2021/08/12 06:03:35;;;;;;;26.40;20.95;;;;;;;14.46;100.00;101488.28;4977728;28;20046;-83
2021/08/12 06:06:01;;;;;;;26.45;19.02;;;;;;;14.60;100.00;101492.16;4980226;28;20057;-85
2021/08/12 06:08:26;;;;;;;25.70;19.23;;;;;;;14.73;99.78;101484.38;4979742;28;20145;-84
2021/08/12 06:10:52;;;;;;;29.83;23.08;;;;;;;14.91;99.39;101483.28;4957374;28;20102;-82
2021/08/12 06:13:18;;;;;;;28.63;21.65;;;;;;;15.06;98.72;101490.44;4962659;28;20039;-84
2021/08/12 06:15:43;;;;;;;28.40;21.67;;;;;;;15.19;97.87;101487.19;4965491;28;20038;-81
2021/08/12 06:18:10;;;;;;;31.40;22.85;;;;;;;15.32;97.28;101482.03;4947586;28;20125;-84
2021/08/12 06:20:37;;;;;;;25.67;21.23;;;;;;;15.46;96.15;101472.31;4967314;28;20101;-85
2021/08/12 06:23:07;;;;;;;31.17;20.98;;;;;;;15.61;96.27;101482.34;4956246;28;20130;-81
2021/08/12 06:25:34;;;;;;;26.98;21.05;;;;;;;15.74;95.91;101478.03;4957639;28;20042;-82
2021/08/12 06:27:59;;;;;;;27.88;20.65;;;;;;;15.87;94.60;101482.00;4960509;28;20077;-81
2021/08/12 06:30:25;;;;;;;31.85;21.63;;;;;;;16.01;94.38;101487.44;4986228;28;20077;-82
2021/08/12 06:32:50;;;;;;;29.63;21.42;;;;;;;16.15;93.45;101482.25;4978376;28;20038;-80
2021/08/12 06:35:16;;;;;;;24.70;20.13;;;;;;;16.27;92.97;101491.59;4977579;28;20054;-84
2021/08/12 06:37:50;;;;;;;27.80;20.75;;;;;;;16.41;92.50;101490.78;4978810;28;20136;-81
2021/08/12 06:40:17;;;;;;;25.95;20.55;;;;;;;16.58;91.97;101496.88;4978218;28;20407;-80
2021/08/12 06:42:43;;;;;;;29.08;20.70;;;;;;;16.73;91.62;101507.69;4975341;28;20042;-85
2021/08/12 06:45:09;;;;;;;26.25;19.55;;;;;;;16.87;90.30;101509.59;4994625;28;20420;-83
2021/08/12 06:47:36;;;;;;;28.05;19.65;;;;;;;17.01;89.48;101507.06;4975340;28;20039;-84
2021/08/12 06:50:05;;;;;;;26.33;19.88;;;;;;;17.12;88.69;101503.88;4992788;28;20119;-81
2021/08/12 06:52:30;;;;;;;23.83;19.10;;;;;;;17.27;86.96;101509.25;4983604;28;20665;-83
2021/08/12 06:54:56;;;;;;;26.33;18.58;;;;;;;17.37;86.41;101510.59;4973381;28;20046;-82
2021/08/12 06:57:21;;;;;;;23.40;16.90;;;;;;;17.45;84.78;101519.66;4974996;28;20070;-83
2021/08/12 06:59:46;;;;;;;23.42;17.52;;;;;;;17.57;85.67;101515.41;4976311;28;20075;-84
2021/08/12 07:02:12;;;;;;;22.10;16.00;;;;;;;17.73;85.16;101515.16;4979061;28;20045;-85
2021/08/12 07:04:37;;;;;;;21.98;15.75;;;;;;;17.89;83.73;101516.78;4977519;28;20085;-83
2021/08/12 07:07:03;;;;;;;21.35;15.15;;;;;;;18.02;83.54;101516.09;4955603;28;20723;-81
2021/08/12 07:09:28;;;;;;;22.88;14.25;;;;;;;18.11;82.44;101512.19;4956616;28;20051;-83
2021/08/12 07:11:54;;;;;;;17.92;12.32;;;;;;;18.20;79.43;101511.00;4957163;28;20568;-82
2021/08/12 07:14:19;;;;;;;15.68;11.15;;;;;;;18.23;79.19;101513.31;4941440;28;20488;-82
2021/08/12 07:16:44;;;;;;;17.52;11.80;;;;;;;18.31;79.15;101511.50;4955578;28;20391;-82
2021/08/12 07:19:10;;;;;;;17.15;10.80;;;;;;;18.40;79.15;101511.16;4955716;28;22356;-84
2021/08/12 07:21:40;;;;;;;15.48;11.15;;;;;;;18.48;78.77;101516.44;4957287;28;20052;-84
2021/08/12 07:24:06;;;;;;;16.17;11.80;;;;;;;18.58;78.44;101513.34;4948306;28;20050;-83
2021/08/12 07:26:31;;;;;;;16.85;12.05;;;;;;;18.73;78.50;101513.25;4962728;28;20038;-85
2021/08/12 07:28:56;;;;;;;15.70;11.30;;;;;;;18.82;79.19;101520.22;4960555;28;20132;-83
2021/08/12 07:31:22;;;;;;;18.00;11.13;;;;;;;18.97;78.61;101511.94;4961721;28;20836;-85
2021/08/12 07:33:47;;;;;;;14.63;10.45;;;;;;;19.05;78.34;101509.03;4958691;28;20039;-81
2021/08/12 07:36:12;;;;;;;15.63;10.55;;;;;;;19.17;78.42;101520.19;4942613;28;20046;-84
2021/08/12 07:38:38;;;;;;;14.82;11.13;;;;;;;19.23;78.16;101513.09;4955311;28;20137;-83
2021/08/12 07:41:03;;;;;;;16.10;9.82;;;;;;;19.25;76.39;101521.84;4939558;28;20557;-82
2021/08/12 07:43:29;;;;;;;14.77;10.40;;;;;;;19.32;76.54;101523.56;4958290;28;20035;-83
2021/08/12 07:45:54;;;;;;;14.05;9.98;;;;;;;19.37;77.14;101515.63;4969379;28;20868;-83
2021/08/12 07:48:20;;;;;;;14.02;10.02;;;;;;;19.51;77.08;101508.34;4968071;28;20053;-83
2021/08/12 07:50:46;;;;;;;15.60;11.30;;;;;;;19.61;77.09;101502.50;4984715;28;20054;-83
2021/08/12 07:53:12;;;;;;;14.30;11.07;;;;;;;19.65;76.05;101497.47;4980384;28;20070;-83
2021/08/12 07:55:38;;;;;;;13.98;9.48;;;;;;;19.78;76.42;101502.97;4981198;28;20073;-83
2021/08/12 07:58:03;;;;;;;14.60;9.63;;;;;;;19.80;74.71;101500.91;4980709;28;20069;-86
2021/08/12 08:00:29;;;;;;;11.90;9.05;;;;;;;19.84;74.17;101502.97;4980857;28;20042;-83
2021/08/12 08:02:55;;;;;;;12.60;8.57;;;;;;;19.90;76.13;101495.84;4979583;28;20054;-85
2021/08/12 08:05:23;;;;;;;11.93;8.52;;;;;;;19.97;74.33;101496.72;4982963;28;20092;-80
2021/08/12 08:07:51;;;;;;;13.18;8.48;;;;;;;20.05;73.76;101493.78;4980940;28;20046;-83
2021/08/12 08:10:18;;;;;;;12.55;8.32;;;;;;;20.05;72.93;101482.88;4986590;28;20046;-84
2021/08/12 08:12:44;;;;;;;10.43;8.00;;;;;;;20.11;73.59;101492.09;4984888;28;20037;-84
2021/08/12 08:15:11;;;;;;;14.90;8.40;;;;;;;20.21;73.51;101486.22;4980186;28;20058;-81
2021/08/12 08:17:36;;;;;;;11.75;7.55;;;;;;;20.25;72.65;101477.41;4987708;28;20050;-85
2021/08/12 08:20:04;;;;;;;11.85;7.88;;;;;;;20.29;72.89;101484.09;4987077;28;20306;-82
2021/08/12 08:22:29;;;;;;;11.77;7.38;;;;;;;20.43;73.20;101484.94;4988927;28;20042;-84
2021/08/12 08:24:55;;;;;;;11.20;7.30;;;;;;;20.56;73.08;101488.69;4975213;28;20038;-84
2021/08/12 08:27:20;;;;;;;10.18;7.22;;;;;;;20.57;71.48;101491.22;4986974;28;20326;-82
2021/08/12 08:29:45;;;;;;;9.77;6.47;;;;;;;20.64;70.65;101492.03;4986663;28;20061;-85
2021/08/12 08:32:11;;;;;;;9.65;6.72;;;;;;;20.65;70.79;101498.31;4988342;28;20134;-83
2021/08/12 08:34:36;;;;;;;10.13;6.80;;;;;;;20.82;72.12;101483.16;4989105;28;20130;-84
2021/08/12 08:37:02;;;;;;;10.40;6.38;;;;;;;20.91;71.10;101486.47;4983917;28;20050;-83
2021/08/12 08:39:27;;;;;;;10.68;6.97;;;;;;;20.95;70.03;101488.56;4988100;28;20057;-82
2021/08/12 08:41:53;;;;;;;13.35;6.88;;;;;;;21.04;69.96;101489.16;4985862;28;20031;-82
2021/08/12 08:44:21;;;;;;;8.20;6.53;;;;;;;21.07;68.68;101485.19;4988583;28;20027;-83
2021/08/12 08:46:47;;;;;;;9.98;6.25;;;;;;;21.07;69.21;101482.44;4987708;28;20046;-83
2021/08/12 08:49:17;;;;;;;9.15;6.55;;;;;;;21.10;69.84;101482.00;4986833;28;20101;-84
2021/08/12 08:51:43;;;;;;;8.77;5.93;;;;;;;21.18;68.79;101488.06;4988305;28;20038;-82
2021/08/12 08:54:11;;;;;;;8.90;6.43;;;;;;;21.16;67.76;101484.69;4984390;28;20113;-83
2021/08/12 08:56:38;;;;;;;8.13;5.68;;;;;;;21.29;68.76;101486.53;4987402;28;20491;-84
2021/08/12 08:59:04;;;;;;;9.00;5.78;;;;;;;21.47;67.89;101494.00;5019403;28;20074;-82
2021/08/12 09:01:30;;;;;;;11.30;6.85;;;;;;;21.48;67.24;101492.94;5019317;28;20042;-84
2021/08/12 09:03:55;;;;;;;8.20;5.95;;;;;;;21.49;67.81;101485.59;4984394;28;20049;-84
2021/08/12 09:06:21;;;;;;;8.48;5.63;;;;;;;21.61;67.54;101494.78;5003592;28;20052;-85
2021/08/12 09:08:47;;;;;;;9.55;6.05;;;;;;;21.66;65.52;101496.81;4986917;28;20461;-83
2021/08/12 09:11:12;;;;;;;8.20;5.80;;;;;;;21.66;66.08;101491.34;4988096;28;20047;-83
2021/08/12 09:13:37;;;;;;;9.20;6.22;;;;;;;21.68;64.87;101491.97;4987943;28;20044;-82
2021/08/12 09:16:03;;;;;;;7.07;5.18;;;;;;;21.77;65.44;101486.03;4986780;28;20503;-83
2021/08/12 09:18:29;;;;;;;10.05;5.78;;;;;;;21.85;64.13;101487.66;4985957;28;20415;-84
2021/08/12 09:20:57;;;;;;;8.27;5.88;;;;;;;21.88;64.95;101497.31;4987613;28;20053;-83
2021/08/12 09:23:28;;;;;;;9.27;5.85;;;;;;;21.90;65.06;101489.72;4987210;28;20491;-85
2021/08/12 09:25:56;;;;;;;7.15;5.55;;;;;;;21.97;62.07;101502.25;5018900;28;20050;-84
2021/08/12 09:28:28;;;;;;;8.85;5.57;;;;;;;21.98;60.93;101497.63;4985431;28;20429;-83
2021/08/12 09:30:59;;;;;;;10.07;5.47;;;;;;;22.02;61.27;101496.13;4986606;28;20038;-85
2021/08/12 09:33:27;;;;;;;8.32;5.03;;;;;;;22.00;60.21;101492.78;5001516;28;20051;-83
2021/08/12 09:35:53;;;;;;;7.90;5.47;;;;;;;21.99;60.84;101499.31;4986287;28;20034;-84
2021/08/12 09:38:19;;;;;;;9.65;6.13;;;;;;;22.04;62.39;101514.00;5016572;28;20053;-82
2021/08/12 09:40:52;;;;;;;9.15;5.50;;;;;;;22.16;61.97;101516.81;5019018;28;20049;-81
2021/08/12 09:43:17;;;;;;;7.57;5.32;;;;;;;22.19;59.71;101513.69;5001531;28;20053;-82
2021/08/12 09:45:43;;;;;;;6.63;4.97;;;;;;;22.26;60.99;101506.22;4987791;28;20043;-83
2021/08/12 09:48:14;;;;;;;9.05;6.30;;;;;;;22.33;60.98;101516.28;4986070;28;20034;-82
2021/08/12 09:50:45;;;;;;;7.38;5.05;;;;;;;22.42;61.21;101512.22;5018976;28;20407;-83
2021/08/12 09:53:20;;;;;;;10.45;5.90;;;;;;;22.33;59.91;101500.72;4986635;28;20058;-82
2021/08/12 09:55:46;;;;;;;8.98;5.95;;;;;;;22.40;61.34;101515.16;4986096;28;20065;-81
2021/08/12 09:58:13;;;;;;;9.90;6.78;;;;;;;22.49;61.38;101504.75;4984657;28;20070;-81
2021/08/12 10:00:47;;;;;;;9.50;5.75;;;;;;;22.55;60.04;101511.22;4986138;28;20256;-83
2021/08/12 10:03:19;;;;;;;10.52;6.60;;;;;;;22.57;60.20;101506.38;4986470;28;20050;-84
2021/08/12 10:05:44;;;;;;;10.02;6.30;;;;;;;22.65;60.68;101512.38;4987049;28;20068;-82
2021/08/12 10:08:09;;;;;;;9.18;6.47;;;;;;;22.75;61.26;101504.47;5016448;28;20124;-83
2021/08/12 10:10:35;;;;;;;10.77;5.63;;;;;;;22.85;60.97;101503.13;5002258;28;20465;-84
2021/08/12 10:13:01;;;;;;;10.27;6.20;;;;;;;22.84;61.02;101506.91;5017387;28;20039;-83
2021/08/12 10:15:32;;;;;;;9.13;5.90;;;;;;;22.92;61.02;101503.84;4985857;28;20184;-83
2021/08/12 10:17:59;;;;;;;8.88;5.90;;;;;;;23.02;60.56;101497.88;4986132;28;20042;-81
2021/08/12 10:20:28;;;;;;;11.70;5.72;;;;;;;23.04;60.95;101498.47;4972943;28;20046;-83
2021/08/12 10:22:55;;;;;;;7.63;5.70;;;;;;;23.10;59.83;101503.91;4986220;28;20042;-83
2021/08/12 10:25:23;;;;;;;10.85;6.03;;;;;;;23.10;59.21;101503.03;4984131;28;20423;-82
2021/08/12 10:27:51;;;;;;;8.80;5.00;;;;;;;23.20;61.03;101508.81;4978622;28;20399;-83
2021/08/12 10:30:18;;;;;;;;;;;;;;;23.31;60.38;101507.19;4973101;28;20054;-82
2021/08/12 10:32:57;;;;;;;8.95;4.93;;;;;;;23.31;59.59;101513.50;4979669;28;20036;-85
2021/08/12 10:35:29;;;;;;;10.02;4.88;;;;;;;23.35;59.47;101511.13;4973645;28;20042;-85
2021/08/12 10:37:55;;;;;;;8.52;5.38;;;;;;;23.47;59.85;101512.00;4986068;28;20049;-83
2021/08/12 10:40:27;;;;;;;7.93;4.88;;;;;;;23.38;57.19;101508.75;4978214;28;20495;-83
2021/08/12 10:42:54;;;;;;;6.90;4.30;;;;;;;23.43;58.44;101508.91;4974333;28;20046;-84
2021/08/12 10:45:22;;;;;;;7.60;4.38;;;;;;;23.46;58.24;101502.13;4975317;28;20522;-82
2021/08/12 10:47:54;;;;;;;8.93;4.70;;;;;;;23.54;56.84;101506.44;4941556;28;20377;-85
2021/08/12 10:50:22;;;;;;;6.63;4.30;;;;;;;23.60;57.81;101503.59;4958297;28;20042;-84
2021/08/12 10:53:16;;;;;;;6.20;4.00;;;;;;;23.63;57.31;101494.09;4957979;28;20481;-82
2021/08/12 10:55:41;;;;;;;6.72;4.10;;;;;;;23.67;56.23;101502.66;4971840;28;20249;-82
2021/08/12 11:00:54;;;;;;;7.63;4.00;;;;;;;23.82;56.53;101492.13;4959180;28;20034;-83
2021/08/12 11:03:34;;;;;;;7.57;4.00;;;;;;;23.90;57.29;101496.44;4990310;28;20046;-83
2021/08/12 11:06:03;;;;;;;6.07;4.00;;;;;;;24.06;56.25;101499.31;4974041;28;20491;-85
2021/08/12 11:08:48;;;;;;;6.88;4.43;;;;;;;24.09;56.80;101490.63;4995621;28;20451;-82
2021/08/12 11:11:20;;;;;;;6.40;3.92;;;;;;;24.06;56.20;101485.59;4977286;28;20100;-84
2021/08/12 11:13:47;;;;;;;5.22;3.45;;;;;;;24.28;56.90;101474.03;4989717;28;20526;-85
2021/08/12 11:16:12;;;;;;;7.80;3.90;;;;;;;24.25;54.18;101485.47;4979369;28;20054;-82